Time;durP1;ratioP1;P1;durP2;ratioP2;P2;SDS_P1;SDS_P2;PMS_P1;PMS_P2;Temp;Humidity;BMP_temperature;BMP_pressure;BME280_temperature;BME280_humidity;BME280_pressure;Samples;Min_cycle;Max_cycle;Signal;HPM_P1;HPM_P2
2024/01/18 00:01:12;;;;;;;22.48;12.77;;;3.20;99.90;;;;;;4951552;28;20117;-66
2024/01/18 00:03:39;;;;;;;20.50;11.40;;;3.30;99.90;;;;;;4955842;28;20051;-64
2024/01/18 00:06:05;;;;;;;58.83;14.77;;;3.30;99.90;;;;;;4954075;28;20019;-66
2024/01/18 00:08:30;;;;;;;108.70;17.90;;;3.30;99.90;;;;;;4952229;28;20356;-66
2024/01/18 00:10:56;;;;;;;73.70;16.73;;;3.30;99.90;;;;;;4957890;28;20047;-66
2024/01/18 00:13:21;;;;;;;85.43;15.75;;;3.30;99.90;;;;;;4952778;28;20094;-66
2024/01/18 00:15:47;;;;;;;18.35;8.63;;;3.30;99.90;;;;;;4946858;28;20772;-65
2024/01/18 00:18:13;;;;;;;22.67;8.82;;;3.30;99.90;;;;;;4934191;28;20032;-65
2024/01/18 00:20:38;;;;;;;29.40;10.75;;;3.30;99.90;;;;;;4925864;29;20027;-66
2024/01/18 00:23:04;;;;;;;14.23;8.68;;;3.30;99.90;;;;;;4937352;28;20028;-65
2024/01/18 00:25:29;;;;;;;173.60;18.23;;;3.40;99.90;;;;;;4954099;28;20030;-65
2024/01/18 00:27:55;;;;;;;237.88;20.80;;;3.40;99.90;;;;;;4946963;28;20037;-66
2024/01/18 00:30:21;;;;;;;155.70;17.35;;;3.40;99.90;;;;;;4948374;28;20066;-65
2024/01/18 00:32:46;;;;;;;36.63;11.57;;;3.40;99.90;;;;;;4952181;28;20094;-64
2024/01/18 00:35:12;;;;;;;21.65;10.27;;;3.40;99.90;;;;;;4953632;28;20702;-66
2024/01/18 00:37:37;;;;;;;23.05;11.15;;;3.40;99.90;;;;;;4952524;28;20024;-65
2024/01/18 00:40:03;;;;;;;138.00;18.70;;;3.40;99.90;;;;;;4948814;28;20032;-67
2024/01/18 00:42:29;;;;;;;15.38;9.68;;;3.40;99.90;;;;;;4950718;28;20058;-66
2024/01/18 00:44:55;;;;;;;113.53;16.20;;;3.40;99.90;;;;;;4949589;28;20035;-66
2024/01/18 00:47:20;;;;;;;41.67;11.95;;;3.40;99.90;;;;;;4953296;28;20067;-64
2024/01/18 00:49:46;;;;;;;65.38;12.93;;;3.40;99.90;;;;;;4952851;28;20032;-66
2024/01/18 00:52:11;;;;;;;17.95;10.27;;;3.30;99.90;;;;;;4952637;28;20034;-66
2024/01/18 00:54:37;;;;;;;29.92;11.55;;;3.40;99.90;;;;;;4948885;28;20499;-66
2024/01/18 00:57:03;;;;;;;67.30;13.93;;;3.40;99.90;;;;;;4950171;28;20145;-66
2024/01/18 00:59:28;;;;;;;106.47;16.70;;;3.40;99.90;;;;;;4950963;28;20114;-67
2024/01/18 01:01:54;;;;;;;145.52;18.27;;;3.30;99.90;;;;;;4951784;28;20028;-66
2024/01/18 01:04:19;;;;;;;136.13;17.00;;;3.30;99.90;;;;;;4954087;28;20027;-66
2024/01/18 01:06:45;;;;;;;160.77;17.17;;;3.30;99.90;;;;;;4950946;28;20739;-66
2024/01/18 01:09:11;;;;;;;115.78;16.08;;;3.30;99.90;;;;;;4952140;28;20067;-65
2024/01/18 01:11:37;;;;;;;178.80;19.67;;;3.30;99.90;;;;;;4954428;28;20376;-66
2024/01/18 01:14:02;;;;;;;145.95;17.77;;;3.30;99.90;;;;;;4953161;28;20038;-66
2024/01/18 01:16:28;;;;;;;24.65;11.90;;;3.30;99.90;;;;;;4952625;28;20051;-65
2024/01/18 01:18:54;;;;;;;43.28;13.27;;;3.30;99.90;;;;;;4955655;28;20093;-67
2024/01/18 01:21:19;;;;;;;32.63;12.35;;;3.20;99.90;;;;;;4952017;28;20063;-66
2024/01/18 01:23:48;;;;;;;101.13;15.45;;;3.30;99.90;;;;;;4950506;28;20039;-67
2024/01/18 01:26:15;;;;;;;94.10;16.30;;;3.30;99.90;;;;;;4950952;28;20032;-66
2024/01/18 01:28:42;;;;;;;66.13;14.52;;;3.30;99.90;;;;;;4950803;28;20019;-66
2024/01/18 01:31:07;;;;;;;93.00;16.17;;;3.30;99.90;;;;;;4949799;28;20460;-66
2024/01/18 01:33:33;;;;;;;76.55;15.23;;;3.20;99.90;;;;;;4950713;28;20058;-66
2024/01/18 01:35:59;;;;;;;115.50;17.98;;;3.20;99.90;;;;;;4938284;28;20024;-66
2024/01/18 01:38:24;;;;;;;166.15;18.23;;;3.20;99.90;;;;;;4929181;28;20032;-65
2024/01/18 01:40:50;;;;;;;97.82;16.02;;;3.20;99.90;;;;;;4936839;28;20687;-65
2024/01/18 01:43:17;;;;;;;104.85;14.52;;;3.20;99.90;;;;;;4947889;28;20031;-65
2024/01/18 01:45:42;;;;;;;88.40;14.52;;;3.20;99.90;;;;;;4934607;28;20032;-66
2024/01/18 01:48:09;;;;;;;66.50;13.10;;;3.20;99.90;;;;;;4939589;28;20106;-66
2024/01/18 01:50:37;;;;;;;61.33;13.27;;;3.10;99.90;;;;;;4951301;28;20377;-65
2024/01/18 01:53:04;;;;;;;85.38;14.63;;;3.10;99.90;;;;;;4952712;28;20086;-66
2024/01/18 01:55:31;;;;;;;89.10;14.90;;;3.10;99.90;;;;;;4947646;28;20039;-65
2024/01/18 01:57:58;;;;;;;110.60;15.15;;;3.10;99.90;;;;;;4948440;28;20041;-66
2024/01/18 02:00:24;;;;;;;95.47;18.92;;;3.10;99.90;;;;;;4949496;28;20027;-66
2024/01/18 02:02:51;;;;;;;86.40;14.40;;;3.10;99.90;;;;;;4951563;28;20126;-67
2024/01/18 02:05:18;;;;;;;89.07;14.00;;;3.10;99.90;;;;;;4950654;28;20091;-66
2024/01/18 02:07:43;;;;;;;72.75;13.95;;;3.10;99.90;;;;;;4951100;28;20031;-67
2024/01/18 02:10:09;;;;;;;102.40;15.30;;;3.00;99.90;;;;;;4951691;28;20035;-66
2024/01/18 02:12:35;;;;;;;113.72;15.73;;;3.10;99.90;;;;;;4946755;28;20043;-67
2024/01/18 02:15:01;;;;;;;98.80;14.93;;;3.10;99.90;;;;;;4950206;28;20050;-66
2024/01/18 02:17:28;;;;;;;98.88;15.43;;;3.10;99.90;;;;;;4946862;28;20391;-66
2024/01/18 02:19:54;;;;;;;56.08;11.43;;;3.10;99.90;;;;;;4949361;28;20384;-67
2024/01/18 02:22:22;;;;;;;58.80;11.70;;;3.10;99.90;;;;;;4947526;28;20039;-67
2024/01/18 02:24:54;;;;;;;56.60;12.23;;;3.20;99.90;;;;;;4951188;28;20038;-64
2024/01/18 02:27:20;;;;;;;55.00;12.35;;;3.10;99.90;;;;;;4949190;28;20028;-66
2024/01/18 02:29:48;;;;;;;124.18;14.85;;;3.20;99.90;;;;;;4949691;28;20043;-66
2024/01/18 02:32:13;;;;;;;143.77;15.25;;;3.20;99.90;;;;;;4946881;28;20110;-66
2024/01/18 02:34:40;;;;;;;159.52;16.95;;;3.20;99.90;;;;;;4947729;28;20567;-66
2024/01/18 02:37:07;;;;;;;132.32;15.10;;;3.10;99.90;;;;;;4949040;28;20074;-67
2024/01/18 02:39:33;;;;;;;86.05;13.07;;;3.10;99.90;;;;;;4952029;28;20035;-66
2024/01/18 02:41:59;;;;;;;56.80;11.93;;;3.10;99.90;;;;;;4949859;28;20028;-66
2024/01/18 02:44:26;;;;;;;42.63;11.48;;;3.10;99.90;;;;;;4946373;28;20042;-67
2024/01/18 02:46:52;;;;;;;66.70;12.20;;;3.10;99.90;;;;;;4966648;28;20034;-65
2024/01/18 02:49:18;;;;;;;62.47;11.60;;;3.10;99.90;;;;;;4949898;28;20023;-65
2024/01/18 02:51:44;;;;;;;66.40;11.95;;;3.10;99.90;;;;;;4954088;28;20059;-66
2024/01/18 02:54:10;;;;;;;82.63;11.70;;;3.10;99.90;;;;;;4955233;28;20047;-65
2024/01/18 02:56:37;;;;;;;37.15;10.15;;;3.10;99.90;;;;;;4948836;28;20039;-66
2024/01/18 02:59:03;;;;;;;59.47;10.57;;;3.10;99.90;;;;;;4947361;28;20032;-67
2024/01/18 03:01:29;;;;;;;30.30;9.95;;;3.20;99.90;;;;;;4947901;28;20088;-68
2024/01/18 03:03:55;;;;;;;49.22;11.02;;;3.10;99.90;;;;;;4949610;28;20097;-65
2024/01/18 03:06:20;;;;;;;52.00;11.63;;;3.10;99.90;;;;;;4950754;28;20054;-66
2024/01/18 03:08:46;;;;;;;25.17;9.70;;;3.10;99.90;;;;;;4951305;28;20059;-66
2024/01/18 03:11:11;;;;;;;20.15;8.88;;;3.00;99.90;;;;;;4949316;28;20123;-66
2024/01/18 03:13:38;;;;;;;29.90;9.73;;;3.00;99.90;;;;;;4948455;28;20024;-66
2024/01/18 03:16:03;;;;;;;17.38;8.80;;;3.00;99.90;;;;;;4948913;28;20614;-66
2024/01/18 03:18:29;;;;;;;25.58;8.38;;;3.00;99.90;;;;;;4956387;28;20086;-66
2024/01/18 03:20:55;;;;;;;12.70;7.50;;;3.00;99.90;;;;;;4951545;28;20089;-65
2024/01/18 03:23:20;;;;;;;11.90;6.20;;;3.00;99.90;;;;;;4947244;28;20081;-66
2024/01/18 03:25:46;;;;;;;13.38;7.18;;;3.00;99.90;;;;;;4958204;28;20093;-66
2024/01/18 03:28:12;;;;;;;12.05;7.22;;;3.00;99.90;;;;;;4957152;28;20415;-65
2024/01/18 03:30:37;;;;;;;10.40;6.22;;;3.00;99.90;;;;;;4948236;28;20038;-65
2024/01/18 03:33:03;;;;;;;12.20;6.60;;;3.00;99.90;;;;;;4963790;28;20047;-65
2024/01/18 03:35:29;;;;;;;13.43;6.35;;;2.90;99.90;;;;;;4947833;28;20088;-66
2024/01/18 03:37:54;;;;;;;13.60;5.38;;;2.90;99.90;;;;;;4948698;28;20479;-67
2024/01/18 03:40:20;;;;;;;19.08;8.88;;;2.90;99.90;;;;;;4949317;28;20031;-65
2024/01/18 03:42:45;;;;;;;7.80;4.70;;;2.90;99.90;;;;;;4950730;28;20784;-66
2024/01/18 03:45:11;;;;;;;3.92;2.53;;;2.80;99.90;;;;;;4946315;28;20086;-66
2024/01/18 03:47:37;;;;;;;3.20;2.05;;;2.90;99.90;;;;;;4950213;28;20038;-66
2024/01/18 03:50:03;;;;;;;2.65;2.15;;;2.90;99.90;;;;;;4947461;28;20024;-66
2024/01/18 03:52:29;;;;;;;2.58;1.83;;;2.90;99.90;;;;;;4948706;28;20483;-65
2024/01/18 03:54:54;;;;;;;2.88;2.20;;;2.80;99.90;;;;;;4950648;28;20042;-67
2024/01/18 03:57:20;;;;;;;3.10;2.58;;;2.80;99.90;;;;;;4965364;28;20083;-65
2024/01/18 03:59:46;;;;;;;2.20;1.70;;;2.80;99.90;;;;;;4948847;28;20054;-66
2024/01/18 04:02:13;;;;;;;1.50;1.25;;;2.70;99.90;;;;;;4952131;28;20551;-66
2024/01/18 04:04:39;;;;;;;1.52;1.40;;;2.70;99.90;;;;;;4952556;28;20019;-66
2024/01/18 04:07:04;;;;;;;1.70;1.15;;;2.70;99.90;;;;;;4952716;28;20031;-65
2024/01/18 04:09:30;;;;;;;1.52;1.42;;;2.60;99.90;;;;;;4949474;28;20495;-66
2024/01/18 04:11:56;;;;;;;1.60;1.45;;;2.60;99.90;;;;;;4950379;28;20035;-66
2024/01/18 04:14:21;;;;;;;1.42;1.10;;;2.60;99.90;;;;;;4951820;28;20637;-66
2024/01/18 04:16:47;;;;;;;0.82;0.80;;;2.60;99.90;;;;;;4951042;28;20035;-65
2024/01/18 04:19:13;;;;;;;1.67;1.10;;;2.60;99.90;;;;;;4953483;28;20102;-65
2024/01/18 04:21:38;;;;;;;1.05;0.95;;;2.60;99.90;;;;;;4955646;28;20137;-66
2024/01/18 04:24:05;;;;;;;0.85;0.80;;;2.60;99.90;;;;;;4955243;28;20121;-65
2024/01/18 04:26:33;;;;;;;0.95;0.90;;;2.60;99.90;;;;;;4955851;28;20039;-67
2024/01/18 04:29:00;;;;;;;1.30;1.08;;;2.60;99.90;;;;;;4952368;28;20103;-66
2024/01/18 04:31:26;;;;;;;1.60;1.25;;;2.60;99.90;;;;;;4952781;28;20022;-66
2024/01/18 04:33:51;;;;;;;1.80;1.35;;;2.60;99.90;;;;;;4953860;28;20035;-65
2024/01/18 04:36:17;;;;;;;4.35;3.45;;;2.60;99.90;;;;;;4952753;28;20031;-65
2024/01/18 04:38:43;;;;;;;3.15;2.33;;;2.60;99.90;;;;;;4951645;28;20090;-65
2024/01/18 04:41:08;;;;;;;2.95;1.88;;;2.50;99.90;;;;;;4953984;28;20106;-67
2024/01/18 04:43:34;;;;;;;4.10;2.40;;;2.50;99.90;;;;;;4953911;28;20487;-66
2024/01/18 04:46:00;;;;;;;3.28;2.35;;;2.50;99.90;;;;;;4964499;28;20028;-66
2024/01/18 04:48:26;;;;;;;2.45;2.15;;;2.50;99.90;;;;;;4953885;28;20038;-66
2024/01/18 04:50:51;;;;;;;2.65;1.70;;;2.40;99.90;;;;;;4940560;28;20032;-65
2024/01/18 04:53:17;;;;;;;2.13;1.52;;;2.40;99.90;;;;;;4926929;28;20032;-66
2024/01/18 04:55:43;;;;;;;2.90;1.88;;;2.40;99.90;;;;;;4931876;29;20587;-66
2024/01/18 04:58:09;;;;;;;2.40;2.20;;;2.30;99.90;;;;;;4950208;28;20112;-67
2024/01/18 05:00:35;;;;;;;2.63;1.92;;;2.30;99.90;;;;;;4945951;28;20055;-67
2024/01/18 05:03:00;;;;;;;2.97;2.10;;;2.30;99.90;;;;;;4943502;28;20043;-67
2024/01/18 05:05:26;;;;;;;2.70;2.30;;;2.20;99.90;;;;;;4948384;28;20038;-66
2024/01/18 05:07:52;;;;;;;2.47;2.28;;;2.20;99.90;;;;;;4949279;28;20059;-67
2024/01/18 05:10:17;;;;;;;3.65;2.70;;;2.20;99.90;;;;;;4949501;28;20456;-68
2024/01/18 05:12:45;;;;;;;3.35;3.05;;;2.10;99.90;;;;;;4948274;28;20035;-67
2024/01/18 05:15:11;;;;;;;3.58;3.00;;;2.00;99.90;;;;;;4949347;28;20086;-67
2024/01/18 05:17:40;;;;;;;4.00;3.55;;;2.00;99.90;;;;;;4948931;28;20090;-67
2024/01/18 05:20:06;;;;;;;3.85;2.85;;;1.90;99.90;;;;;;4947569;28;20114;-68
2024/01/18 05:22:33;;;;;;;3.67;2.55;;;1.80;99.90;;;;;;4950717;28;20031;-66
2024/01/18 05:24:59;;;;;;;4.40;4.00;;;1.80;99.90;;;;;;4951931;28;20037;-67
2024/01/18 05:27:30;;;;;;;4.30;3.40;;;1.70;99.90;;;;;;4949628;28;20027;-66
2024/01/18 05:29:56;;;;;;;5.75;3.80;;;1.60;99.90;;;;;;4949481;28;20034;-67
2024/01/18 05:32:22;;;;;;;3.80;3.25;;;1.60;99.90;;;;;;4951508;28;20042;-66
2024/01/18 05:34:49;;;;;;;4.85;3.75;;;1.60;99.90;;;;;;4950529;28;20505;-67
2024/01/18 05:37:15;;;;;;;5.00;4.60;;;1.50;99.90;;;;;;4947919;28;20123;-66
2024/01/18 05:39:41;;;;;;;7.05;5.38;;;1.50;99.90;;;;;;4945893;28;20078;-67
2024/01/18 05:42:07;;;;;;;11.43;6.53;;;1.50;99.90;;;;;;4947395;28;20051;-66
2024/01/18 05:44:33;;;;;;;5.97;5.20;;;1.50;99.90;;;;;;4946285;28;20090;-67
2024/01/18 05:46:58;;;;;;;6.88;5.97;;;1.50;99.90;;;;;;4949560;28;20041;-67
2024/01/18 05:49:24;;;;;;;5.00;4.45;;;1.50;99.90;;;;;;4951253;28;20036;-68
2024/01/18 05:51:50;;;;;;;5.53;5.03;;;1.60;99.90;;;;;;4948262;28;20060;-67
2024/01/18 05:54:16;;;;;;;5.82;5.22;;;1.60;99.90;;;;;;4946072;28;20648;-67
2024/01/18 05:56:42;;;;;;;6.75;5.70;;;1.50;99.90;;;;;;4947768;28;20451;-66
2024/01/18 05:59:08;;;;;;;6.47;5.93;;;1.60;99.90;;;;;;4947872;28;20043;-66
2024/01/18 06:01:34;;;;;;;5.28;4.78;;;1.60;99.90;;;;;;4948955;28;20999;-67
2024/01/18 06:04:01;;;;;;;6.57;5.88;;;1.60;99.90;;;;;;4948791;28;20039;-66
2024/01/18 06:06:26;;;;;;;6.80;6.20;;;1.60;99.90;;;;;;4953195;28;20031;-66
2024/01/18 06:08:52;;;;;;;7.30;6.60;;;1.60;99.90;;;;;;4949092;28;20038;-66
2024/01/18 06:11:18;;;;;;;7.43;6.72;;;1.60;99.90;;;;;;4949988;28;20563;-66
2024/01/18 06:13:44;;;;;;;7.22;6.63;;;1.50;99.90;;;;;;4949154;28;20035;-64
2024/01/18 06:16:10;;;;;;;7.45;6.78;;;1.50;99.90;;;;;;4946310;28;20409;-66
2024/01/18 06:18:42;;;;;;;8.13;6.90;;;1.50;99.90;;;;;;4928806;28;20047;-66
2024/01/18 06:21:09;;;;;;;7.55;6.82;;;1.50;99.90;;;;;;4938778;28;20408;-66
2024/01/18 06:23:35;;;;;;;7.55;6.80;;;1.50;99.90;;;;;;4937780;28;20042;-67
2024/01/18 06:26:01;;;;;;;6.78;6.10;;;1.50;99.90;;;;;;4945589;28;20046;-67
2024/01/18 06:28:26;;;;;;;8.35;6.93;;;1.50;99.90;;;;;;4927329;29;20055;-66
2024/01/18 06:30:52;;;;;;;7.15;6.47;;;1.40;99.90;;;;;;4928600;28;20054;-65
2024/01/18 06:33:19;;;;;;;8.27;7.40;;;1.50;99.90;;;;;;4942230;28;20046;-66
2024/01/18 06:35:44;;;;;;;7.07;6.47;;;1.40;99.90;;;;;;4942587;28;20067;-66
2024/01/18 06:38:10;;;;;;;9.35;6.38;;;1.40;99.90;;;;;;4923538;29;20086;-67
2024/01/18 06:40:35;;;;;;;8.70;7.82;;;1.40;99.90;;;;;;4927778;28;20142;-67
2024/01/18 06:43:01;;;;;;;6.78;6.13;;;1.40;99.90;;;;;;4947514;28;20046;-66
2024/01/18 06:45:27;;;;;;;12.95;7.60;;;1.40;99.90;;;;;;4949178;28;21035;-67
2024/01/18 06:47:52;;;;;;;8.80;7.90;;;1.40;99.90;;;;;;4950628;28;20040;-66
2024/01/18 06:50:18;;;;;;;9.45;8.38;;;1.30;99.90;;;;;;4948163;28;20671;-66
2024/01/18 06:52:44;;;;;;;12.68;8.32;;;1.30;99.90;;;;;;4949237;28;20407;-66
2024/01/18 06:55:09;;;;;;;9.52;8.10;;;1.30;99.90;;;;;;4947498;28;20546;-66
2024/01/18 06:57:35;;;;;;;9.43;7.75;;;1.20;99.90;;;;;;4949951;28;20431;-66
2024/01/18 07:00:01;;;;;;;9.57;8.57;;;1.20;99.90;;;;;;4949219;28;20163;-67
2024/01/18 07:02:26;;;;;;;22.00;14.45;;;1.10;99.90;;;;;;4950769;28;20047;-65
2024/01/18 07:04:52;;;;;;;11.95;10.13;;;1.20;99.90;;;;;;4946244;28;20031;-65
2024/01/18 07:07:18;;;;;;;11.75;10.35;;;1.20;99.90;;;;;;4949966;28;20024;-66
2024/01/18 07:09:43;;;;;;;12.07;10.65;;;1.20;99.90;;;;;;4949411;28;20043;-67
2024/01/18 07:12:10;;;;;;;13.48;10.40;;;1.10;99.90;;;;;;4948572;28;20039;-67
2024/01/18 07:14:36;;;;;;;12.13;10.85;;;1.10;99.90;;;;;;4949734;28;20551;-66
2024/01/18 07:17:01;;;;;;;14.32;11.30;;;1.10;99.90;;;;;;4949893;28;20123;-67
2024/01/18 07:19:27;;;;;;;20.85;14.15;;;1.10;99.90;;;;;;4948944;28;20083;-67
2024/01/18 07:21:53;;;;;;;18.95;10.93;;;1.10;99.90;;;;;;4946534;28;20039;-65
2024/01/18 07:24:22;;;;;;;12.07;10.80;;;1.10;99.90;;;;;;4950165;28;20074;-65
2024/01/18 07:26:48;;;;;;;41.25;23.20;;;1.00;99.90;;;;;;4950995;28;20039;-66
2024/01/18 07:29:14;;;;;;;14.98;12.55;;;1.00;99.90;;;;;;4947622;28;20035;-66
2024/01/18 07:31:39;;;;;;;21.83;16.15;;;1.00;99.90;;;;;;4928899;29;20110;-67
2024/01/18 07:34:05;;;;;;;15.18;12.55;;;1.00;99.90;;;;;;4926822;29;20024;-66
2024/01/18 07:36:30;;;;;;;26.10;17.98;;;1.00;99.90;;;;;;4946203;28;20039;-67
2024/01/18 07:38:57;;;;;;;14.75;13.18;;;0.90;99.90;;;;;;4951348;28;20038;-66
2024/01/18 07:41:22;;;;;;;13.05;11.68;;;0.90;99.90;;;;;;4951846;28;20035;-66
2024/01/18 07:43:48;;;;;;;24.25;18.65;;;0.90;99.90;;;;;;4951101;28;21019;-67
2024/01/18 07:46:14;;;;;;;15.00;11.90;;;0.90;99.90;;;;;;4950795;28;20506;-67
2024/01/18 07:48:39;;;;;;;31.67;17.70;;;0.90;99.90;;;;;;4952597;28;20043;-64
2024/01/18 07:51:05;;;;;;;18.48;12.07;;;0.90;99.90;;;;;;4953973;28;20193;-66
2024/01/18 07:53:31;;;;;;;16.85;13.07;;;0.90;99.90;;;;;;4954162;28;20557;-66
2024/01/18 07:55:56;;;;;;;20.35;12.00;;;0.90;99.90;;;;;;4949975;28;20040;-66
2024/01/18 07:58:22;;;;;;;13.35;9.98;;;0.90;99.90;;;;;;4961059;28;21320;-66
2024/01/18 08:00:48;;;;;;;17.95;12.60;;;0.90;99.90;;;;;;4950250;28;20040;-65
2024/01/18 08:03:13;;;;;;;27.65;15.35;;;0.90;99.90;;;;;;4951346;28;20035;-64
2024/01/18 08:05:39;;;;;;;18.08;12.20;;;0.90;99.90;;;;;;4952944;28;20046;-65
2024/01/18 08:08:05;;;;;;;14.77;12.60;;;0.90;99.90;;;;;;4950645;28;20031;-66
2024/01/18 08:10:30;;;;;;;27.15;14.95;;;0.90;99.90;;;;;;4925515;28;20548;-67
2024/01/18 08:12:56;;;;;;;18.08;12.18;;;0.90;99.90;;;;;;4952080;28;20027;-66
2024/01/18 08:15:22;;;;;;;17.90;10.93;;;0.90;99.90;;;;;;4955317;28;20589;-66
2024/01/18 08:17:47;;;;;;;19.33;12.73;;;0.90;99.90;;;;;;4951827;28;20039;-65
2024/01/18 08:20:13;;;;;;;17.98;12.75;;;0.90;99.90;;;;;;4954540;28;20027;-66
2024/01/18 08:22:43;;;;;;;18.52;12.75;;;0.90;99.90;;;;;;4951976;28;20043;-66
2024/01/18 08:25:12;;;;;;;19.33;12.93;;;0.90;99.90;;;;;;4955632;28;20066;-66
2024/01/18 08:27:43;;;;;;;16.65;12.23;;;0.90;99.90;;;;;;4936783;28;20051;-67
2024/01/18 08:30:08;;;;;;;20.15;15.07;;;0.90;99.90;;;;;;4941962;28;20106;-66
2024/01/18 08:32:34;;;;;;;32.78;17.98;;;0.90;99.90;;;;;;4951735;28;20142;-67
2024/01/18 08:35:07;;;;;;;21.30;14.68;;;0.90;99.90;;;;;;4952809;28;20028;-66
2024/01/18 08:37:33;;;;;;;35.95;20.77;;;0.90;99.90;;;;;;4949967;28;20017;-66
2024/01/18 08:39:59;;;;;;;26.58;18.40;;;0.90;99.90;;;;;;4953113;28;20685;-67
2024/01/18 08:42:25;;;;;;;16.85;12.77;;;0.90;99.90;;;;;;4953105;28;20063;-66
2024/01/18 08:44:50;;;;;;;16.27;11.65;;;0.90;99.90;;;;;;4950087;28;20031;-66
2024/01/18 08:47:16;;;;;;;14.93;11.45;;;0.90;99.90;;;;;;4951847;28;20046;-67
2024/01/18 08:49:42;;;;;;;16.90;13.63;;;0.90;99.90;;;;;;4950943;28;20495;-67
2024/01/18 08:52:08;;;;;;;13.13;9.90;;;0.90;99.90;;;;;;4950585;28;20042;-66
2024/01/18 08:54:33;;;;;;;12.73;10.55;;;0.90;99.90;;;;;;4952161;28;20035;-66
2024/01/18 08:56:59;;;;;;;13.10;10.30;;;0.80;99.90;;;;;;4950696;28;20039;-66
2024/01/18 08:59:25;;;;;;;13.98;10.10;;;0.80;99.90;;;;;;4952657;28;20062;-66
2024/01/18 09:01:51;;;;;;;12.60;10.65;;;0.80;99.90;;;;;;4949433;28;20081;-65
2024/01/18 09:04:17;;;;;;;14.15;11.45;;;0.80;99.90;;;;;;4951998;28;20020;-66
2024/01/18 09:06:45;;;;;;;14.98;11.32;;;0.90;99.90;;;;;;4932971;28;20462;-66
2024/01/18 09:09:11;;;;;;;11.48;10.27;;;0.80;99.90;;;;;;4924881;29;20524;-65
2024/01/18 09:11:40;;;;;;;11.38;10.15;;;0.90;99.90;;;;;;4927033;28;20047;-67
2024/01/18 09:14:06;;;;;;;15.68;13.93;;;0.90;99.90;;;;;;4949465;28;20027;-66
2024/01/18 09:16:32;;;;;;;12.25;9.73;;;0.90;99.90;;;;;;4952914;28;20506;-67
2024/01/18 09:18:58;;;;;;;14.07;11.73;;;0.90;99.90;;;;;;4952371;28;20062;-65
2024/01/18 09:21:24;;;;;;;51.30;28.83;;;0.90;99.90;;;;;;4952742;28;20566;-66
2024/01/18 09:23:50;;;;;;;21.50;15.13;;;0.90;99.90;;;;;;4949782;28;20503;-66
2024/01/18 09:26:16;;;;;;;24.48;16.45;;;0.90;99.90;;;;;;4949973;28;20046;-66
2024/01/18 09:28:42;;;;;;;20.00;14.07;;;0.80;99.90;;;;;;4949151;28;20023;-66
2024/01/18 09:31:09;;;;;;;15.80;13.43;;;0.80;99.90;;;;;;4950672;28;20027;-65
2024/01/18 09:33:37;;;;;;;17.10;12.70;;;0.80;99.90;;;;;;4948990;28;20048;-66
2024/01/18 09:36:06;;;;;;;16.20;10.93;;;0.80;99.90;;;;;;4937278;28;20036;-66
2024/01/18 09:38:33;;;;;;;12.65;10.15;;;0.80;99.90;;;;;;4928156;28;20503;-66
2024/01/18 09:41:07;;;;;;;14.90;11.25;;;0.80;99.90;;;;;;4932330;28;20019;-68
2024/01/18 09:43:36;;;;;;;12.23;9.43;;;0.80;99.90;;;;;;4954974;28;20026;-66
2024/01/18 09:46:05;;;;;;;13.45;9.40;;;0.80;99.90;;;;;;4950942;28;20027;-67
2024/01/18 09:48:31;;;;;;;12.50;9.70;;;0.80;99.90;;;;;;4956377;28;20028;-66
2024/01/18 09:50:57;;;;;;;13.07;9.45;;;0.80;99.90;;;;;;4953094;28;20031;-67
2024/01/18 09:53:24;;;;;;;14.07;9.05;;;0.80;99.90;;;;;;4952477;28;20590;-66
2024/01/18 09:55:52;;;;;;;13.38;9.73;;;0.80;99.90;;;;;;4954482;28;21670;-67
2024/01/18 09:58:19;;;;;;;12.68;9.40;;;0.80;99.90;;;;;;4950512;28;20388;-66
2024/01/18 10:00:55;;;;;;;12.35;9.35;;;0.80;99.90;;;;;;4949083;28;20118;-65
2024/01/18 10:03:21;;;;;;;10.50;9.18;;;0.80;99.90;;;;;;4947215;28;20511;-67
2024/01/18 10:05:47;;;;;;;10.18;7.95;;;0.80;99.90;;;;;;4948453;28;20062;-66
2024/01/18 10:08:13;;;;;;;9.88;7.82;;;0.80;99.90;;;;;;4954086;28;20066;-67
2024/01/18 10:10:38;;;;;;;10.38;8.65;;;0.80;99.90;;;;;;4954659;28;20027;-66
2024/01/18 10:13:04;;;;;;;11.75;8.35;;;0.90;99.90;;;;;;4945619;28;20518;-68
2024/01/18 10:15:33;;;;;;;10.25;8.45;;;0.90;99.90;;;;;;4950481;28;20036;-67
2024/01/18 10:18:04;;;;;;;11.98;9.07;;;0.90;99.90;;;;;;4936614;28;20035;-66
2024/01/18 10:20:30;;;;;;;12.43;8.23;;;0.90;99.90;;;;;;4923862;29;20128;-66
2024/01/18 10:22:58;;;;;;;9.13;7.97;;;0.90;99.90;;;;;;4930738;28;20523;-66
2024/01/18 10:25:26;;;;;;;11.68;8.13;;;1.00;99.90;;;;;;4950872;28;20472;-67
2024/01/18 10:27:56;;;;;;;7.55;6.30;;;1.00;99.90;;;;;;4949199;28;20515;-65
2024/01/18 10:30:22;;;;;;;8.43;6.43;;;1.00;99.90;;;;;;4948338;28;20707;-65
2024/01/18 10:32:48;;;;;;;13.60;6.68;;;1.10;99.90;;;;;;4947238;28;20042;-66
2024/01/18 10:35:24;;;;;;;9.07;6.78;;;1.10;99.90;;;;;;4948303;28;20023;-66
2024/01/18 10:38:04;;;;;;;9.05;6.75;;;1.20;99.90;;;;;;4948101;28;20050;-67
2024/01/18 10:40:33;;;;;;;8.85;6.75;;;1.20;99.90;;;;;;4938773;28;20375;-67
2024/01/18 10:43:03;;;;;;;7.38;4.75;;;1.20;99.90;;;;;;4931835;29;20042;-68
2024/01/18 10:45:32;;;;;;;18.37;8.77;;;1.20;99.90;;;;;;4948207;28;20086;-69
2024/01/18 10:47:58;;;;;;;11.07;7.40;;;1.20;99.90;;;;;;4938517;28;20028;-68
2024/01/18 10:50:26;;;;;;;7.75;6.82;;;1.10;99.90;;;;;;4937904;28;20027;-66
2024/01/18 10:52:52;;;;;;;8.40;6.25;;;1.10;99.90;;;;;;4949745;28;20028;-67
2024/01/18 10:55:18;;;;;;;8.30;5.97;;;1.10;99.90;;;;;;4928847;28;20030;-67
2024/01/18 10:57:43;;;;;;;7.18;6.13;;;1.00;99.90;;;;;;4932588;29;20056;-68
2024/01/18 11:00:15;;;;;;;7.63;6.38;;;1.00;99.90;;;;;;4935346;28;20090;-67
2024/01/18 11:02:44;;;;;;;13.90;9.07;;;1.00;99.90;;;;;;4946822;28;20046;-68
2024/01/18 11:05:17;;;;;;;15.40;11.63;;;1.00;99.90;;;;;;4956375;28;20035;-69
2024/01/18 11:07:43;;;;;;;13.43;10.13;;;1.00;99.90;;;;;;4956363;28;20030;-67
2024/01/18 11:10:13;;;;;;;19.73;12.63;;;0.90;99.90;;;;;;4957199;28;20035;-68
2024/01/18 11:12:43;;;;;;;17.58;12.02;;;0.80;99.90;;;;;;4959068;28;20031;-68
2024/01/18 11:15:10;;;;;;;21.13;12.80;;;0.70;99.90;;;;;;4957802;28;20118;-67
2024/01/18 11:17:46;;;;;;;35.13;18.15;;;0.70;99.90;;;;;;4959889;28;20026;-68
2024/01/18 11:20:12;;;;;;;15.60;10.82;;;0.60;99.90;;;;;;4955296;28;20387;-67
2024/01/18 11:22:39;;;;;;;14.82;12.02;;;0.60;99.90;;;;;;4957369;28;20058;-68
2024/01/18 11:25:07;;;;;;;16.50;12.57;;;0.50;99.90;;;;;;4960145;28;20030;-67
2024/01/18 11:27:40;;;;;;;19.63;15.30;;;0.50;99.90;;;;;;4960717;28;20027;-67
2024/01/18 11:30:34;;;;;;;17.85;12.77;;;0.50;99.90;;;;;;4935669;28;20052;-67
2024/01/18 11:33:05;;;;;;;18.67;13.48;;;0.50;99.90;;;;;;4942650;28;20047;-68
2024/01/18 11:35:32;;;;;;;18.15;13.60;;;0.50;99.90;;;;;;4956947;28;20027;-66
2024/01/18 11:38:28;;;;;;;24.77;13.68;;;0.40;99.90;;;;;;4961717;28;20078;-67
2024/01/18 11:41:03;;;;;;;19.98;13.70;;;0.40;99.90;;;;;;4935787;28;20028;-66
2024/01/18 11:43:51;;;;;;;23.17;15.60;;;0.30;99.90;;;;;;4957161;28;20155;-68
2024/01/18 11:46:34;;;;;;;20.05;14.02;;;0.30;99.90;;;;;;4951837;28;20050;-66
2024/01/18 11:49:00;;;;;;;19.15;13.55;;;0.20;99.90;;;;;;4950941;28;20055;-66
2024/01/18 11:51:27;;;;;;;23.48;14.77;;;0.20;99.90;;;;;;4959904;28;20039;-67
2024/01/18 11:53:54;;;;;;;18.52;13.20;;;0.20;99.90;;;;;;4969032;28;20043;-66
2024/01/18 11:56:23;;;;;;;17.98;13.38;;;0.10;99.90;;;;;;4948656;28;20147;-67
2024/01/18 11:58:50;;;;;;;17.58;12.57;;;0.00;99.90;;;;;;4931605;29;20050;-66
2024/01/18 12:01:19;;;;;;;22.45;14.73;;;0.10;99.90;;;;;;4935555;29;20015;-66
2024/01/18 12:03:46;;;;;;;22.52;15.48;;;0.00;99.90;;;;;;4950857;28;20051;-65
2024/01/18 12:06:12;;;;;;;31.63;18.55;;;0.10;99.90;;;;;;4955757;28;20504;-67
2024/01/18 12:08:37;;;;;;;37.17;19.88;;;0.00;99.90;;;;;;4956950;28;20058;-66
2024/01/18 12:11:04;;;;;;;23.25;16.00;;;0.00;99.90;;;;;;4956942;28;20034;-66
2024/01/18 12:13:29;;;;;;;38.45;21.48;;;0.00;99.90;;;;;;4957096;28;20181;-66
2024/01/18 12:15:55;;;;;;;72.57;34.35;;;0.00;99.90;;;;;;4952623;28;20130;-66
2024/01/18 12:18:20;;;;;;;27.65;16.77;;;-0.10;99.90;;;;;;4952715;28;20377;-65
2024/01/18 12:20:48;;;;;;;40.83;20.80;;;0.00;99.90;;;;;;4947329;28;20795;-66
2024/01/18 12:23:15;;;;;;;23.63;15.40;;;-0.10;99.90;;;;;;4935539;28;20967;-65
2024/01/18 12:25:41;;;;;;;20.20;14.65;;;0.00;99.90;;;;;;4954436;28;20047;-66
2024/01/18 12:28:07;;;;;;;23.65;16.05;;;0.00;99.90;;;;;;4935101;28;20028;-66
2024/01/18 12:30:33;;;;;;;19.52;15.60;;;-0.10;99.90;;;;;;4943640;28;20044;-65
2024/01/18 12:32:59;;;;;;;16.88;14.85;;;0.00;99.90;;;;;;4949033;28;20606;-66
2024/01/18 12:35:25;;;;;;;20.10;14.05;;;-0.10;99.90;;;;;;4950389;28;20035;-64
2024/01/18 12:37:50;;;;;;;26.48;18.85;;;0.00;99.90;;;;;;4950745;28;20090;-66
2024/01/18 12:40:17;;;;;;;24.73;16.55;;;0.10;99.90;;;;;;4927904;29;20016;-65